Time;durP1;ratioP1;P1;durP2;ratioP2;P2;SDS_P1;SDS_P2;PMS_P1;PMS_P2;Temp;Humidity;BMP_temperature;BMP_pressure;BME280_temperature;BME280_humidity;BME280_pressure;Samples;Min_cycle;Max_cycle;Signal;HPM_P1;HPM_P2
2023/09/21 00:00:57;;;;;;;1999.90;999.90;;;19.70;99.90;;;;;;5054467;28;20123;-71
2023/09/21 00:03:24;;;;;;;1999.90;999.90;;;19.70;99.90;;;;;;5048217;28;20484;-77
2023/09/21 00:05:51;;;;;;;1999.90;999.90;;;19.60;99.90;;;;;;5053906;28;20049;-76
2023/09/21 00:08:17;;;;;;;1999.90;999.90;;;19.50;99.90;;;;;;5056603;28;20021;-75
2023/09/21 00:10:43;;;;;;;1999.90;999.90;;;19.40;99.90;;;;;;5056309;28;20032;-75
2023/09/21 00:13:09;;;;;;;1999.90;999.90;;;19.30;99.90;;;;;;5056663;28;20094;-70
2023/09/21 00:15:35;;;;;;;1999.90;999.90;;;19.20;99.90;;;;;;5056626;28;20095;-71
2023/09/21 00:18:00;;;;;;;1999.90;999.90;;;19.20;99.90;;;;;;5056501;28;20024;-75
2023/09/21 00:20:30;;;;;;;1999.90;999.90;;;19.20;99.90;;;;;;5056339;28;20037;-76
2023/09/21 00:22:56;;;;;;;1999.90;999.90;;;19.20;99.90;;;;;;5056406;28;20056;-75
2023/09/21 00:25:23;;;;;;;1999.90;999.90;;;19.30;99.90;;;;;;5055871;28;20029;-72
2023/09/21 00:27:49;;;;;;;1999.90;999.90;;;19.30;99.90;;;;;;5056230;28;20017;-70
2023/09/21 00:30:15;;;;;;;1999.90;999.90;;;19.30;99.90;;;;;;5056305;28;20036;-75
2023/09/21 00:32:41;;;;;;;1999.90;999.90;;;19.30;99.90;;;;;;5055947;28;20033;-75
2023/09/21 00:35:11;;;;;;;1999.90;999.90;;;19.30;99.90;;;;;;5056298;28;20029;-75
2023/09/21 00:37:38;;;;;;;1999.90;999.90;;;19.30;99.90;;;;;;5055546;28;20025;-74
2023/09/21 00:40:24;;;;;;;1999.90;999.90;;;19.30;99.90;;;;;;5056193;28;20061;-70
2023/09/21 00:42:52;;;;;;;1999.90;999.90;;;19.40;99.90;;;;;;5055683;28;20036;-75
2023/09/21 00:45:21;;;;;;;1999.90;999.90;;;19.40;99.90;;;;;;5055806;28;20033;-75
2023/09/21 00:47:50;;;;;;;1999.90;999.90;;;19.30;99.90;;;;;;5055726;28;20047;-75
2023/09/21 00:50:21;;;;;;;1999.90;999.90;;;19.40;99.90;;;;;;5055662;28;20025;-75
2023/09/21 00:52:51;;;;;;;1999.90;999.90;;;19.40;99.90;;;;;;5055718;28;20115;-70
2023/09/21 00:55:24;;;;;;;1999.90;999.90;;;19.40;99.90;;;;;;5055595;28;20025;-75
2023/09/21 00:57:55;;;;;;;1999.90;999.90;;;19.30;99.90;;;;;;5055127;28;20388;-76
2023/09/21 01:00:26;;;;;;;1999.90;999.90;;;19.40;99.90;;;;;;5055579;28;20567;-76
2023/09/21 01:02:53;;;;;;;1999.90;999.90;;;19.40;99.90;;;;;;5042781;28;20040;-76
2023/09/21 01:05:21;;;;;;;1999.90;999.90;;;19.40;99.90;;;;;;5052507;28;20045;-71
2023/09/21 01:07:48;;;;;;;1999.90;999.90;;;19.40;99.90;;;;;;5055510;28;20032;-70
2023/09/21 01:10:15;;;;;;;1999.90;999.90;;;19.50;99.90;;;;;;5055204;28;20511;-76
2023/09/21 01:12:44;;;;;;;1999.90;999.90;;;19.40;99.90;;;;;;5055016;28;20021;-75
2023/09/21 01:15:10;;;;;;;1999.90;999.90;;;19.40;99.90;;;;;;5055280;28;20545;-75
2023/09/21 01:17:41;;;;;;;1999.90;999.90;;;19.30;99.90;;;;;;5055266;28;20415;-71
2023/09/21 01:20:23;;;;;;;1999.90;999.90;;;19.30;99.90;;;;;;5055167;28;20488;-71
2023/09/21 01:23:08;;;;;;;1999.90;999.90;;;19.20;99.90;;;;;;5055341;28;20028;-74
2023/09/21 01:25:39;;;;;;;1999.90;999.90;;;19.20;99.90;;;;;;5055106;28;20060;-74
2023/09/21 01:28:09;;;;;;;1999.90;999.90;;;19.10;99.90;;;;;;5055095;28;20033;-74
2023/09/21 01:30:36;;;;;;;1999.90;999.90;;;19.10;99.90;;;;;;5055392;28;20423;-70
2023/09/21 01:33:08;;;;;;;1999.90;999.90;;;19.10;99.90;;;;;;5054822;28;20025;-70
2023/09/21 01:35:43;;;;;;;1999.90;999.90;;;19.10;99.90;;;;;;5055452;28;20424;-74
2023/09/21 01:38:12;;;;;;;1999.90;999.90;;;19.10;99.90;;;;;;5054385;28;20040;-74
2023/09/21 01:40:38;;;;;;;1999.90;999.90;;;19.10;99.90;;;;;;5055045;28;20029;-74
2023/09/21 01:43:10;;;;;;;1999.90;999.90;;;19.10;99.90;;;;;;5054800;28;20052;-73
2023/09/21 01:45:39;;;;;;;1999.90;999.90;;;19.10;99.90;;;;;;5055023;28;20033;-74
2023/09/21 01:48:09;;;;;;;1999.90;999.90;;;19.10;99.90;;;;;;5054903;28;20029;-69
2023/09/21 01:50:46;;;;;;;1999.90;999.90;;;19.10;99.90;;;;;;5054543;28;20021;-75
2023/09/21 01:53:13;;;;;;;1999.90;999.90;;;19.10;99.90;;;;;;5054595;28;20037;-74
2023/09/21 01:55:40;;;;;;;1999.90;999.90;;;19.00;99.90;;;;;;5054515;28;20028;-75
2023/09/21 01:58:08;;;;;;;1999.90;999.90;;;19.00;99.90;;;;;;5054565;28;20488;-70
2023/09/21 02:00:39;;;;;;;1999.90;999.90;;;19.00;99.90;;;;;;5054077;28;20029;-71
2023/09/21 02:03:09;;;;;;;1999.90;999.90;;;19.00;99.90;;;;;;5046258;28;20029;-74
2023/09/21 02:05:36;;;;;;;1999.90;999.90;;;19.00;99.90;;;;;;5052735;28;20053;-75
2023/09/21 02:08:04;;;;;;;1999.90;999.90;;;19.00;99.90;;;;;;5054226;28;20031;-75
2023/09/21 02:10:35;;;;;;;1999.90;999.90;;;19.00;99.90;;;;;;5054206;28;20032;-71
2023/09/21 02:13:03;;;;;;;1999.90;999.90;;;18.90;99.90;;;;;;5054216;28;20407;-71
2023/09/21 02:15:29;;;;;;;1999.90;999.90;;;18.90;99.90;;;;;;5053987;28;20526;-71
2023/09/21 02:17:55;;;;;;;1999.90;999.90;;;18.90;99.90;;;;;;5053034;28;20024;-76
2023/09/21 02:20:24;;;;;;;1999.90;999.90;;;18.90;99.90;;;;;;5054302;28;20036;-75
2023/09/21 02:22:52;;;;;;;1999.90;999.90;;;18.90;99.90;;;;;;5054112;28;20048;-71
2023/09/21 02:25:19;;;;;;;1999.90;999.90;;;18.90;99.90;;;;;;5054273;28;20037;-71
2023/09/21 02:27:47;;;;;;;1999.90;999.90;;;18.90;99.90;;;;;;5054137;28;20104;-75
2023/09/21 02:30:21;;;;;;;1999.90;999.90;;;18.90;99.90;;;;;;5054254;28;20028;-75
2023/09/21 02:32:55;;;;;;;1999.90;999.90;;;18.90;99.90;;;;;;5053649;28;20052;-75
2023/09/21 02:35:24;;;;;;;1999.90;999.90;;;18.90;99.90;;;;;;5053964;28;20053;-71
2023/09/21 02:37:52;;;;;;;1999.90;999.90;;;18.90;99.90;;;;;;5050314;28;20053;-71
2023/09/21 02:40:19;;;;;;;1999.90;999.90;;;18.90;99.90;;;;;;5033855;28;20053;-76
2023/09/21 02:42:48;;;;;;;1999.90;999.90;;;18.90;99.90;;;;;;5033710;28;20028;-76
2023/09/21 02:45:14;;;;;;;1999.90;999.90;;;18.90;99.90;;;;;;5033765;28;20028;-76
2023/09/21 02:47:43;;;;;;;1999.90;999.90;;;18.90;99.90;;;;;;5033660;28;20029;-76
2023/09/21 02:50:25;;;;;;;1999.90;999.90;;;18.90;99.90;;;;;;5033430;28;20032;-72
2023/09/21 02:53:02;;;;;;;1999.90;999.90;;;18.90;99.90;;;;;;5033295;28;20034;-76
2023/09/21 02:55:28;;;;;;;1999.90;999.90;;;18.90;99.90;;;;;;5033852;28;20033;-75
2023/09/21 02:58:10;;;;;;;1999.90;999.90;;;18.90;99.90;;;;;;5033620;28;20029;-75
2023/09/21 03:00:46;;;;;;;1999.90;999.90;;;18.90;99.90;;;;;;5045225;28;20066;-76
2023/09/21 03:03:16;;;;;;;1999.90;999.90;;;18.90;99.90;;;;;;5044378;28;20036;-72
2023/09/21 03:05:48;;;;;;;1999.90;999.90;;;18.90;99.90;;;;;;5052478;28;20049;-76
2023/09/21 03:08:17;;;;;;;1999.90;999.90;;;18.90;99.90;;;;;;5053129;28;20385;-76
2023/09/21 03:10:44;;;;;;;1999.90;999.90;;;18.90;99.90;;;;;;5052336;28;20480;-71
2023/09/21 03:13:17;;;;;;;1999.90;999.90;;;18.90;99.90;;;;;;5053029;28;20029;-75
2023/09/21 03:15:53;;;;;;;1999.90;999.90;;;18.90;99.90;;;;;;5053008;28;20491;-70
2023/09/21 03:18:20;;;;;;;1999.90;999.90;;;18.90;99.90;;;;;;5053093;28;20033;-71
2023/09/21 03:20:48;;;;;;;1999.90;999.90;;;18.90;99.90;;;;;;5052740;28;20091;-74
2023/09/21 03:23:15;;;;;;;1999.90;999.90;;;18.90;99.90;;;;;;5052936;28;20482;-74
2023/09/21 03:25:43;;;;;;;1999.90;999.90;;;18.80;99.90;;;;;;5053115;28;20075;-75
2023/09/21 03:28:13;;;;;;;1999.90;999.90;;;18.90;99.90;;;;;;5053168;28;20430;-71
2023/09/21 03:30:39;;;;;;;1999.90;999.90;;;18.80;99.90;;;;;;5052728;28;20100;-70
2023/09/21 03:33:05;;;;;;;1999.90;999.90;;;18.90;99.90;;;;;;5052866;28;20104;-74
2023/09/21 03:35:31;;;;;;;1999.90;999.90;;;18.90;99.90;;;;;;5052833;28;20025;-74
2023/09/21 03:37:57;;;;;;;1999.90;999.90;;;19.00;99.90;;;;;;5052489;28;20075;-70
2023/09/21 03:40:25;;;;;;;1999.90;999.90;;;19.00;99.90;;;;;;5052881;28;20443;-71
2023/09/21 03:42:52;;;;;;;1999.90;999.90;;;19.10;99.90;;;;;;5052559;28;20063;-71
2023/09/21 03:45:20;;;;;;;1999.90;999.90;;;19.10;99.90;;;;;;5052985;28;20029;-74
2023/09/21 03:47:45;;;;;;;1999.90;999.90;;;19.00;99.90;;;;;;5052548;28;20032;-75
2023/09/21 03:50:12;;;;;;;1999.90;999.90;;;18.90;99.90;;;;;;5052326;28;20029;-74
2023/09/21 03:52:42;;;;;;;1999.90;999.90;;;18.80;99.90;;;;;;5052411;28;20021;-74
2023/09/21 03:55:13;;;;;;;1999.90;999.90;;;18.80;99.90;;;;;;5052896;28;20104;-70
2023/09/21 03:57:39;;;;;;;1999.90;999.90;;;18.80;99.90;;;;;;5052884;28;20029;-74
2023/09/21 04:00:17;;;;;;;1999.90;999.90;;;18.80;99.90;;;;;;5052622;28;20009;-74
2023/09/21 04:02:45;;;;;;;1999.90;999.90;;;18.70;99.90;;;;;;5044325;28;20041;-74
2023/09/21 04:05:13;;;;;;;1999.90;999.90;;;18.70;99.90;;;;;;5049050;28;20079;-74
2023/09/21 04:07:39;;;;;;;1999.90;999.90;;;18.80;99.90;;;;;;5052357;28;20400;-74
2023/09/21 04:10:06;;;;;;;1999.90;999.90;;;18.80;99.90;;;;;;5052270;28;20014;-71
2023/09/21 04:12:32;;;;;;;1999.90;999.90;;;18.70;99.90;;;;;;5052472;28;20025;-74
2023/09/21 04:14:57;;;;;;;1999.90;999.90;;;18.60;99.90;;;;;;5052291;28;20087;-74
2023/09/21 04:17:26;;;;;;;1999.90;999.90;;;18.70;99.90;;;;;;5052478;28;20029;-74
2023/09/21 04:19:52;;;;;;;1999.90;999.90;;;18.70;99.90;;;;;;5052161;28;20017;-71
2023/09/21 04:22:18;;;;;;;1999.90;999.90;;;18.80;99.90;;;;;;5051102;28;20439;-71
2023/09/21 04:24:44;;;;;;;1999.90;999.90;;;18.70;99.90;;;;;;5052305;28;20040;-74
2023/09/21 04:27:09;;;;;;;1999.90;999.90;;;18.70;99.90;;;;;;5052179;28;20025;-74
2023/09/21 04:29:35;;;;;;;1999.90;999.90;;;18.60;99.90;;;;;;5052390;28;20033;-74
2023/09/21 04:32:01;;;;;;;1999.90;999.90;;;18.60;99.90;;;;;;5052280;28;20025;-74
2023/09/21 04:34:26;;;;;;;1999.90;999.90;;;18.70;99.90;;;;;;5052306;28;20476;-70
2023/09/21 04:36:52;;;;;;;1999.90;999.90;;;18.70;99.90;;;;;;5052305;28;20067;-74
2023/09/21 04:39:18;;;;;;;1999.90;999.90;;;18.70;99.90;;;;;;5051879;28;20036;-74
2023/09/21 04:41:44;;;;;;;1999.90;999.90;;;18.70;99.90;;;;;;5054863;28;20492;-74
2023/09/21 04:44:10;;;;;;;1999.90;999.90;;;18.70;99.90;;;;;;5048302;28;20029;-73
2023/09/21 04:46:36;;;;;;;1999.90;999.90;;;18.70;99.90;;;;;;5044044;28;20044;-71
2023/09/21 04:49:03;;;;;;;1999.90;999.90;;;18.80;99.90;;;;;;5035975;28;20033;-70
2023/09/21 04:51:29;;;;;;;1999.90;999.90;;;18.80;99.90;;;;;;5036003;28;20046;-74
2023/09/21 04:53:54;;;;;;;1999.90;999.90;;;18.90;99.90;;;;;;5035701;28;20029;-74
2023/09/21 04:56:20;;;;;;;1999.90;999.90;;;18.90;99.90;;;;;;5035762;28;20036;-74
2023/09/21 04:58:46;;;;;;;1999.90;999.90;;;19.00;99.90;;;;;;5037001;28;20029;-71
2023/09/21 05:01:12;;;;;;;1999.90;999.90;;;19.00;99.90;;;;;;5050861;28;20516;-73
2023/09/21 05:03:37;;;;;;;1999.90;999.90;;;19.00;99.90;;;;;;5043949;28;20365;-73
2023/09/21 05:06:06;;;;;;;1999.90;999.90;;;19.00;99.90;;;;;;5055053;28;20100;-73
2023/09/21 05:08:36;;;;;;;1999.90;999.90;;;19.10;99.90;;;;;;5055141;28;20025;-74
2023/09/21 05:11:05;;;;;;;1999.90;999.90;;;19.10;99.90;;;;;;5055513;28;20067;-74
2023/09/21 05:13:31;;;;;;;1999.90;999.90;;;19.10;99.90;;;;;;5055356;28;20025;-70
2023/09/21 05:15:56;;;;;;;1999.90;999.90;;;19.20;99.90;;;;;;5055473;28;20021;-74
2023/09/21 05:18:22;;;;;;;1999.90;999.90;;;19.20;99.90;;;;;;5047101;28;20507;-73
2023/09/21 05:20:49;;;;;;;1999.90;999.90;;;19.30;99.90;;;;;;5041380;28;20025;-74
2023/09/21 05:23:15;;;;;;;1999.90;999.90;;;19.30;99.90;;;;;;5035363;28;20025;-74
2023/09/21 05:25:40;;;;;;;1999.90;999.90;;;19.40;99.90;;;;;;5034965;28;20558;-71
2023/09/21 05:28:06;;;;;;;1999.90;999.90;;;19.40;99.90;;;;;;5035187;28;20108;-71
2023/09/21 05:30:31;;;;;;;1999.90;999.90;;;19.30;99.90;;;;;;5035113;28;20025;-73
2023/09/21 05:32:57;;;;;;;1999.90;999.90;;;19.30;99.90;;;;;;5042951;28;20487;-73
2023/09/21 05:35:23;;;;;;;1999.90;999.90;;;19.20;99.90;;;;;;5045735;28;20036;-73
2023/09/21 05:37:49;;;;;;;1999.90;999.90;;;18.80;99.90;;;;;;5053061;28;20036;-72
2023/09/21 05:40:15;;;;;;;1999.90;999.90;;;18.70;99.90;;;;;;5046293;28;20025;-70
2023/09/21 05:42:41;;;;;;;1999.90;999.90;;;18.70;99.90;;;;;;5046934;28;20462;-73
2023/09/21 05:45:08;;;;;;;1999.90;999.90;;;18.70;99.90;;;;;;5050218;28;20119;-73
2023/09/21 05:47:33;;;;;;;1999.90;999.90;;;18.80;99.90;;;;;;5044506;28;20025;-73
2023/09/21 05:49:59;;;;;;;1999.90;999.90;;;18.90;99.90;;;;;;5053553;28;20052;-73
2023/09/21 05:52:25;;;;;;;1999.90;999.90;;;18.80;99.90;;;;;;5043320;28;20052;-71
2023/09/21 05:54:51;;;;;;;1999.90;999.90;;;18.80;99.90;;;;;;5049627;28;20108;-73
2023/09/21 05:57:17;;;;;;;1999.90;999.90;;;18.80;99.90;;;;;;5053057;28;20025;-74
2023/09/21 05:59:44;;;;;;;1999.90;999.90;;;18.90;99.90;;;;;;5058584;28;20017;-74
2023/09/21 06:02:13;;;;;;;1999.90;999.90;;;18.80;99.90;;;;;;5048184;28;20057;-71
2023/09/21 06:04:42;;;;;;;1999.90;999.90;;;18.80;99.90;;;;;;5050847;28;20056;-70
2023/09/21 06:07:08;;;;;;;1999.90;999.90;;;18.80;99.90;;;;;;5058341;28;20091;-71
2023/09/21 06:09:34;;;;;;;1999.90;999.90;;;18.90;99.90;;;;;;5053629;28;20421;-74
2023/09/21 06:12:00;;;;;;;1999.90;999.90;;;19.00;99.90;;;;;;5060166;28;20119;-73
2023/09/21 06:14:25;;;;;;;1999.90;999.90;;;19.00;99.90;;;;;;5049218;28;20064;-71
2023/09/21 06:16:51;;;;;;;1999.90;999.90;;;19.00;99.90;;;;;;5053596;28;20492;-69
2023/09/21 06:19:18;;;;;;;1999.90;999.90;;;18.30;99.90;;;;;;5050960;28;20530;-70
2023/09/21 06:21:47;;;;;;;1999.90;999.90;;;17.90;99.90;;;;;;5041935;28;20059;-74
2023/09/21 06:24:14;;;;;;;1999.90;999.90;;;17.70;99.90;;;;;;5053543;28;20393;-74
2023/09/21 06:26:40;;;;;;;1999.90;999.90;;;17.70;99.90;;;;;;5052884;28;20476;-74
2023/09/21 06:29:05;;;;;;;1999.90;999.90;;;17.70;99.90;;;;;;5053104;28;20095;-70
2023/09/21 06:31:32;;;;;;;1999.90;999.90;;;17.70;99.90;;;;;;5052680;28;20021;-71
2023/09/21 06:33:58;;;;;;;1999.90;999.90;;;17.70;99.90;;;;;;5045430;28;20074;-70
2023/09/21 06:36:28;;;;;;;1999.90;999.90;;;17.70;99.90;;;;;;5052036;28;20482;-74
2023/09/21 06:39:00;;;;;;;1999.90;999.90;;;17.70;99.90;;;;;;5052079;28;20883;-70
2023/09/21 06:41:28;;;;;;;1999.90;999.90;;;17.70;99.90;;;;;;5056468;28;20013;-75
2023/09/21 06:43:53;;;;;;;1999.90;999.90;;;17.70;99.90;;;;;;5052513;28;20131;-75
2023/09/21 06:46:19;;;;;;;1999.90;999.90;;;17.50;99.90;;;;;;5053261;28;20061;-71
2023/09/21 06:48:45;;;;;;;1999.90;999.90;;;17.50;99.90;;;;;;5050760;28;20082;-71
2023/09/21 06:51:11;;;;;;;1999.90;999.90;;;17.40;99.90;;;;;;5049241;28;20479;-73
2023/09/21 06:53:37;;;;;;;1999.90;999.90;;;17.30;99.90;;;;;;5059253;28;20041;-74
2023/09/21 06:56:03;;;;;;;1999.90;999.90;;;17.20;99.90;;;;;;5064793;28;20024;-74
2023/09/21 06:58:30;;;;;;;1999.90;999.90;;;17.20;99.90;;;;;;5057081;28;20103;-70
2023/09/21 07:00:58;;;;;;;1999.90;999.90;;;17.20;99.90;;;;;;5051084;28;20028;-74
2023/09/21 07:03:24;;;;;;;1999.90;999.90;;;17.20;99.90;;;;;;5043793;28;20037;-74
2023/09/21 07:05:50;;;;;;;1999.90;999.90;;;17.10;99.90;;;;;;5050869;28;20060;-70
2023/09/21 07:08:16;;;;;;;1999.90;999.90;;;17.10;99.90;;;;;;5043593;28;20040;-74
2023/09/21 07:10:46;;;;;;;1999.90;999.90;;;17.00;99.90;;;;;;5054345;28;20059;-74
2023/09/21 07:13:12;;;;;;;1999.90;999.90;;;17.00;99.90;;;;;;5051533;28;20104;-74
2023/09/21 07:15:41;;;;;;;1999.90;999.90;;;16.90;99.90;;;;;;5052068;28;20104;-74
2023/09/21 07:18:07;;;;;;;1999.90;999.90;;;16.90;99.90;;;;;;5050711;28;20040;-74
2023/09/21 07:20:34;;;;;;;1999.90;999.90;;;16.80;99.90;;;;;;5055726;28;20467;-74
2023/09/21 07:23:00;;;;;;;1999.90;999.90;;;16.70;99.90;;;;;;5052605;28;20036;-70
2023/09/21 07:25:28;;;;;;;1999.90;999.90;;;16.60;99.90;;;;;;5055513;28;20407;-75
2023/09/21 07:27:54;;;;;;;1999.90;999.90;;;16.50;99.90;;;;;;5050316;28;20031;-74
2023/09/21 07:30:21;;;;;;;1999.90;999.90;;;16.50;99.90;;;;;;5050080;28;20033;-73
2023/09/21 07:32:47;;;;;;;1999.90;999.90;;;16.50;99.90;;;;;;5055758;28;20047;-74
2023/09/21 07:35:14;;;;;;;1999.90;999.90;;;16.50;99.90;;;;;;5054902;28;20028;-69
2023/09/21 07:37:45;;;;;;;1999.90;999.90;;;16.50;99.90;;;;;;5048544;28;20036;-69
2023/09/21 07:40:12;;;;;;;1999.90;999.90;;;16.50;99.90;;;;;;5049782;28;20052;-73
2023/09/21 07:42:42;;;;;;;1999.90;999.90;;;16.60;99.90;;;;;;5052457;28;20048;-74
2023/09/21 07:45:11;;;;;;;1999.90;999.90;;;16.70;99.90;;;;;;5052285;28;20028;-73
2023/09/21 07:47:38;;;;;;;1999.90;999.90;;;16.70;99.90;;;;;;5049828;28;20021;-70
2023/09/21 07:50:07;;;;;;;1999.90;999.90;;;16.80;99.90;;;;;;5056751;28;20059;-71
2023/09/21 07:52:34;;;;;;;1999.90;999.90;;;16.80;99.90;;;;;;5052951;28;20075;-75
2023/09/21 07:55:02;;;;;;;1999.90;999.90;;;16.80;99.90;;;;;;5052822;28;20120;-76
2023/09/21 07:57:32;;;;;;;1999.90;999.90;;;16.80;99.90;;;;;;5045845;28;20021;-74
2023/09/21 07:59:57;;;;;;;1999.90;999.90;;;16.80;99.90;;;;;;5052476;28;20049;-74
2023/09/21 08:02:23;;;;;;;1999.90;999.90;;;16.80;99.90;;;;;;5049329;28;20072;-73
2023/09/21 08:04:49;;;;;;;1999.90;999.90;;;16.70;99.90;;;;;;5049167;28;20586;-74
2023/09/21 08:07:14;;;;;;;1999.90;999.90;;;16.60;99.90;;;;;;5053470;28;20032;-73
2023/09/21 08:09:40;;;;;;;1999.90;999.90;;;16.60;99.90;;;;;;5054934;28;20502;-70
2023/09/21 08:12:06;;;;;;;1999.90;999.90;;;16.40;99.90;;;;;;5053631;28;20072;-73
2023/09/21 08:14:34;;;;;;;1999.90;999.90;;;16.30;99.90;;;;;;5053129;28;20028;-74
2023/09/21 08:17:00;;;;;;;1999.90;999.90;;;16.20;99.90;;;;;;5052132;28;20032;-72
2023/09/21 08:19:26;;;;;;;1999.90;999.90;;;16.10;99.90;;;;;;5057212;28;20021;-74
2023/09/21 08:21:51;;;;;;;1999.90;999.90;;;16.20;99.90;;;;;;5056087;28;20443;-74
2023/09/21 08:24:17;;;;;;;1999.90;999.90;;;16.10;99.90;;;;;;5059146;28;20405;-74
2023/09/21 08:26:42;;;;;;;1999.90;999.90;;;16.10;99.90;;;;;;5053779;28;20037;-74
2023/09/21 08:29:08;;;;;;;1999.90;999.90;;;16.10;99.90;;;;;;5050560;28;20519;-74
2023/09/21 08:31:34;;;;;;;1999.90;999.90;;;16.10;99.90;;;;;;5062440;28;20036;-74
2023/09/21 08:33:59;;;;;;;1999.90;999.90;;;16.10;99.90;;;;;;5064466;28;20036;-73
2023/09/21 08:36:26;;;;;;;1999.90;999.90;;;16.10;99.90;;;;;;5057862;28;20024;-74
2023/09/21 08:38:53;;;;;;;1999.90;999.90;;;16.10;99.90;;;;;;5045666;28;20025;-73
2023/09/21 08:41:19;;;;;;;1999.90;999.90;;;16.10;99.90;;;;;;5056521;28;20028;-74
2023/09/21 08:43:45;;;;;;;1999.90;999.90;;;16.10;99.90;;;;;;5057370;28;20032;-70
2023/09/21 08:46:12;;;;;;;1999.90;999.90;;;16.10;99.90;;;;;;5049282;28;20037;-73
2023/09/21 08:48:39;;;;;;;1999.90;999.90;;;16.10;99.90;;;;;;5053019;28;20029;-73
2023/09/21 08:51:11;;;;;;;1999.90;999.90;;;16.00;99.90;;;;;;5037853;28;20041;-73
2023/09/21 08:53:39;;;;;;;1999.90;999.90;;;15.80;99.90;;;;;;5035513;28;20025;-73
2023/09/21 08:56:05;;;;;;;1999.90;999.90;;;15.80;99.90;;;;;;5037710;28;20036;-69
2023/09/21 08:58:34;;;;;;;1999.90;999.90;;;15.90;99.90;;;;;;5050962;28;20025;-74
2023/09/21 09:01:01;;;;;;;1999.90;999.90;;;16.00;99.90;;;;;;5050069;28;20652;-74
2023/09/21 09:03:26;;;;;;;1999.90;999.90;;;16.10;99.90;;;;;;5048033;28;20029;-73
2023/09/21 09:05:55;;;;;;;1999.90;999.90;;;16.00;99.90;;;;;;5054851;28;20051;-74
2023/09/21 09:08:22;;;;;;;1999.90;999.90;;;16.10;99.90;;;;;;5055219;28;20033;-71
2023/09/21 09:10:48;;;;;;;1999.90;999.90;;;16.10;99.90;;;;;;5052492;28;20135;-75
2023/09/21 09:13:14;;;;;;;1999.90;999.90;;;16.10;99.90;;;;;;5051234;28;20036;-74
2023/09/21 09:15:42;;;;;;;1999.90;999.90;;;16.20;99.90;;;;;;5052772;28;20025;-74
2023/09/21 09:18:08;;;;;;;1999.90;999.90;;;16.10;99.90;;;;;;5052312;28;20487;-71
2023/09/21 09:20:37;;;;;;;1999.90;999.90;;;15.90;99.90;;;;;;5054171;28;20036;-72
2023/09/21 09:23:10;;;;;;;1999.90;999.90;;;15.90;99.90;;;;;;5052286;28;20025;-75
2023/09/21 09:25:39;;;;;;;1999.90;999.90;;;15.90;99.90;;;;;;5054633;28;20024;-74
2023/09/21 09:28:07;;;;;;;1999.90;999.90;;;15.90;99.90;;;;;;5071362;28;20506;-74
2023/09/21 09:30:34;;;;;;;1999.90;999.90;;;15.90;99.90;;;;;;5055421;28;20504;-74
2023/09/21 09:33:00;;;;;;;1999.90;999.90;;;15.80;99.90;;;;;;5051835;28;20037;-71
2023/09/21 09:35:27;;;;;;;1999.90;999.90;;;15.80;99.90;;;;;;5052895;28;20033;-71
2023/09/21 09:37:53;;;;;;;1999.90;999.90;;;15.80;99.90;;;;;;5052287;28;20025;-75
2023/09/21 09:40:23;;;;;;;1999.90;999.90;;;15.80;99.90;;;;;;5052875;28;20059;-75
2023/09/21 09:42:51;;;;;;;1999.90;999.90;;;15.90;99.90;;;;;;5051436;28;20480;-75
2023/09/21 09:45:30;;;;;;;1999.90;999.90;;;15.90;99.90;;;;;;5055377;28;20020;-71
2023/09/21 09:47:57;;;;;;;1999.90;999.90;;;16.00;99.90;;;;;;5049206;28;20036;-72
2023/09/21 09:50:25;;;;;;;1999.90;999.90;;;16.00;99.90;;;;;;5052067;28;20051;-76
2023/09/21 09:53:05;;;;;;;1999.90;999.90;;;16.10;99.90;;;;;;5052220;28;20025;-76
2023/09/21 09:55:33;;;;;;;1999.90;999.90;;;16.00;99.90;;;;;;5052951;28;20060;-76
2023/09/21 09:58:03;;;;;;;1999.90;999.90;;;16.00;99.90;;;;;;5047041;28;20025;-73
2023/09/21 10:00:30;;;;;;;1999.90;999.90;;;16.00;99.90;;;;;;5051729;28;20025;-75
2023/09/21 10:02:57;;;;;;;1999.90;999.90;;;16.00;99.90;;;;;;5047608;28;20020;-75
2023/09/21 10:05:24;;;;;;;1999.90;999.90;;;16.00;99.90;;;;;;5053889;28;20432;-76
2023/09/21 10:07:51;;;;;;;1999.90;999.90;;;16.00;99.90;;;;;;5050161;28;20037;-76
2023/09/21 10:10:21;;;;;;;1999.90;999.90;;;16.20;99.90;;;;;;5051629;28;20062;-75
2023/09/21 10:12:52;;;;;;;1999.90;999.90;;;16.30;99.90;;;;;;5049615;28;20453;-73
2023/09/21 10:15:23;;;;;;;1999.90;999.90;;;16.60;99.90;;;;;;5051468;28;20024;-73
2023/09/21 10:17:53;;;;;;;1999.90;999.90;;;16.90;99.90;;;;;;5053818;28;20029;-75
2023/09/21 10:20:27;;;;;;;1999.90;999.90;;;17.10;99.90;;;;;;5048426;28;20426;-74
2023/09/21 10:22:54;;;;;;;1999.90;999.90;;;17.40;99.90;;;;;;5046707;28;20461;-74
2023/09/21 10:25:35;;;;;;;1999.90;999.90;;;17.60;99.90;;;;;;5047496;28;20100;-72
2023/09/21 10:28:22;;;;;;;1999.90;999.90;;;17.40;99.90;;;;;;5050264;28;20074;-72
2023/09/21 10:30:51;;;;;;;1999.90;999.90;;;17.40;99.90;;;;;;5050486;28;20534;-72
2023/09/21 10:33:18;;;;;;;1999.90;999.90;;;17.20;99.90;;;;;;5048105;28;20037;-74
2023/09/21 10:35:45;;;;;;;1999.90;999.90;;;17.00;99.90;;;;;;5052637;28;20021;-74
2023/09/21 10:38:15;;;;;;;1999.90;999.90;;;17.00;99.90;;;;;;5048085;28;20037;-72
2023/09/21 10:40:40;;;;;;;1999.90;999.90;;;16.80;99.90;;;;;;5052094;28;20021;-74
2023/09/21 10:43:37;;;;;;;1999.90;999.90;;;16.80;99.90;;;;;;5052190;28;20035;-76
2023/09/21 10:46:15;;;;;;;1999.90;999.90;;;16.80;99.90;;;;;;5049180;28;20095;-74
2023/09/21 10:48:43;;;;;;;1999.90;999.90;;;16.80;99.90;;;;;;5050939;28;20021;-74
2023/09/21 10:51:09;;;;;;;1999.90;999.90;;;16.80;99.90;;;;;;5050917;28;20041;-72
2023/09/21 10:53:36;;;;;;;1999.90;999.90;;;16.90;99.90;;;;;;5048624;28;20033;-73
2023/09/21 10:56:02;;;;;;;1999.90;999.90;;;17.00;99.90;;;;;;5048449;28;20017;-73
2023/09/21 10:58:32;;;;;;;1999.90;999.90;;;17.10;99.90;;;;;;5043210;28;20528;-74
2023/09/21 11:01:00;;;;;;;1999.90;999.90;;;17.20;99.90;;;;;;5045708;28;20036;-75
2023/09/21 11:03:29;;;;;;;1999.90;999.90;;;17.20;99.90;;;;;;5048438;28;20075;-73
2023/09/21 11:05:56;;;;;;;1999.90;999.90;;;17.30;99.90;;;;;;5044392;28;20564;-72
2023/09/21 11:08:24;;;;;;;1999.90;999.90;;;17.50;99.90;;;;;;5053343;28;20069;-74
2023/09/21 11:10:50;;;;;;;1999.90;999.90;;;17.60;99.90;;;;;;5055594;28;20040;-75
2023/09/21 11:13:19;;;;;;;1999.90;999.90;;;17.90;99.90;;;;;;5053150;28;20036;-75
2023/09/21 11:15:45;;;;;;;1999.90;999.90;;;18.30;99.90;;;;;;5050661;28;20025;-72
2023/09/21 11:18:11;;;;;;;1999.90;999.90;;;18.50;99.90;;;;;;5049116;28;20014;-72
2023/09/21 11:20:41;;;;;;;1999.90;999.90;;;18.80;99.90;;;;;;5050147;28;20106;-75
2023/09/21 11:23:10;;;;;;;1999.90;999.90;;;18.70;99.90;;;;;;5048419;28;20017;-75
2023/09/21 11:25:35;;;;;;;1999.90;999.90;;;18.70;99.90;;;;;;5052837;28;20032;-74
2023/09/21 11:28:01;;;;;;;1999.90;999.90;;;18.80;99.90;;;;;;5050179;28;20492;-74
2023/09/21 11:30:26;;;;;;;1999.90;999.90;;;18.60;99.90;;;;;;5053390;28;20447;-72
2023/09/21 11:32:54;;;;;;;1999.90;999.90;;;18.60;99.90;;;;;;5047377;28;20124;-72
2023/09/21 11:35:21;;;;;;;1999.90;999.90;;;18.60;99.90;;;;;;5048852;28;20033;-75
2023/09/21 11:37:49;;;;;;;1999.90;999.90;;;18.60;99.90;;;;;;5047481;28;20485;-74
2023/09/21 11:40:21;;;;;;;1999.90;999.90;;;18.60;99.90;;;;;;5049244;28;20108;-72
2023/09/21 11:42:48;;;;;;;1999.90;999.90;;;18.50;99.90;;;;;;5045019;28;20021;-75
2023/09/21 11:45:19;;;;;;;1999.90;999.90;;;18.50;99.90;;;;;;5050150;28;20541;-72
2023/09/21 11:47:49;;;;;;;1999.90;999.90;;;18.70;99.90;;;;;;5051675;28;20396;-75
2023/09/21 11:50:25;;;;;;;1999.90;999.90;;;18.90;99.90;;;;;;5050719;28;20075;-75
2023/09/21 11:52:55;;;;;;;1999.90;999.90;;;19.10;99.90;;;;;;5047775;28;20032;-74
2023/09/21 11:55:22;;;;;;;1999.90;999.90;;;19.10;99.90;;;;;;5059578;28;20617;-72
2023/09/21 11:57:49;;;;;;;1999.90;999.90;;;19.50;99.90;;;;;;5056471;28;20017;-73
2023/09/21 12:00:26;;;;;;;1999.90;999.90;;;19.90;99.90;;;;;;5050226;28;20043;-75
2023/09/21 12:02:58;;;;;;;1999.90;999.90;;;19.70;99.90;;;;;;5049499;28;20036;-75